Terminal Aerodrome Forecast
Issued by NWS

Home | Current Version | Previous Version | Text Only | Print | Product List | Glossary On
Versions: 1 2 3 4 5 6 7 8 9 10 11 12 13 14 15 16 17 18 19 20 21 22 23 24 25 26 27 28 29 30 31 32 33 34 35 36 37 38 39
000
FTUS46 KOTX 212029 AAA
TAFCOE
TAF AMD
KCOE 212029Z 2120/2218 25011KT P6SM BKN035 BKN050
     FM220200 19007KT P6SM SCT030 BKN050
     FM220600 14005KT P6SM FEW050 SCT200
     FM221000 10008KT P6SM SCT100 BKN130 OVC200
     FM221500 11012KT P6SM BKN080 OVC100
      AMD LTD TO CLD AND VIS=

USA.gov is the U.S. government's official web portal to all federal, state and local government web resources and services.